createdAt,value
2019-04-14T00:02:08.028Z,44.50
2019-04-14T00:04:42.218Z,44.60
2019-04-14T00:07:12.222Z,44.00
2019-04-14T00:09:40.919Z,45.10
2019-04-14T00:12:11.962Z,45.00
2019-04-14T00:14:40.767Z,45.00
2019-04-14T00:17:09.028Z,45.10
2019-04-14T00:19:37.557Z,45.20
2019-04-14T00:22:05.921Z,45.30
2019-04-14T00:24:35.708Z,45.20
2019-04-14T00:27:04.778Z,45.20
2019-04-14T00:29:33.479Z,45.30
2019-04-14T00:32:03.075Z,45.20
2019-04-14T00:34:56.158Z,45.20
2019-04-14T00:37:33.717Z,45.30
2019-04-14T00:40:12.880Z,46.00
2019-04-14T00:42:49.949Z,45.30
2019-04-14T00:45:45.253Z,45.40
2019-04-14T00:48:18.053Z,45.50
2019-04-14T00:50:45.473Z,45.60
2019-04-14T00:53:14.311Z,45.60
2019-04-14T00:55:42.894Z,45.80
2019-04-14T00:58:11.185Z,45.70
2019-04-14T01:00:40.809Z,46.30
2019-04-14T01:03:09.349Z,45.70
2019-04-14T01:05:37.769Z,45.70
2019-04-14T01:08:07.263Z,45.70
2019-04-14T01:10:36.818Z,45.90
2019-04-14T01:13:08.431Z,46.00
2019-04-14T01:15:49.094Z,45.90
2019-04-14T01:18:07.808Z,45.70
2019-04-14T01:20:36.556Z,46.00
2019-04-14T01:23:06.221Z,46.00
2019-04-14T01:25:35.074Z,46.20
2019-04-14T01:28:04.668Z,46.30
2019-04-14T01:30:33.268Z,46.30
2019-04-14T01:33:03.173Z,46.40
2019-04-14T01:35:33.579Z,46.20
2019-04-14T01:38:01.948Z,46.40
2019-04-14T01:40:31.440Z,46.60
2019-04-14T01:43:00.003Z,46.40
2019-04-14T01:45:30.190Z,46.20
2019-04-14T01:47:59.587Z,46.50
2019-04-14T01:50:51.597Z,46.50
2019-04-14T01:53:39.997Z,46.60
2019-04-14T01:56:16.637Z,46.80
2019-04-14T01:58:49.109Z,46.70
2019-04-14T02:01:22.052Z,46.70
2019-04-14T02:03:50.548Z,46.80
2019-04-14T02:06:20.199Z,46.90
2019-04-14T02:08:50.099Z,46.70
2019-04-14T02:11:20.476Z,46.80
2019-04-14T02:13:49.062Z,46.90
2019-04-14T02:16:28.245Z,46.70
2019-04-14T02:18:50.645Z,46.80
2019-04-14T02:21:19.464Z,47.00
2019-04-14T02:23:47.734Z,46.90
2019-04-14T02:26:24.089Z,47.10
2019-04-14T02:28:52.917Z,47.10
2019-04-14T02:31:43.321Z,47.30
2019-04-14T02:34:25.990Z,47.20
2019-04-14T02:36:57.105Z,47.40
2019-04-14T02:39:31.177Z,47.00
2019-04-14T02:42:00.344Z,47.00
2019-04-14T02:46:56.632Z,47.40
2019-04-14T02:49:27.211Z,47.20
2019-04-14T02:59:27.121Z,47.80
2019-04-14T03:04:29.298Z,47.60
2019-04-14T03:06:56.353Z,48.00
2019-04-14T03:09:38.096Z,47.70
2019-04-14T03:12:01.428Z,47.80
2019-04-14T03:14:44.628Z,47.70
2019-04-14T03:17:21.449Z,47.70
2019-04-14T03:20:19.303Z,47.70
2019-04-14T03:22:53.536Z,47.90
2019-04-14T03:25:31.821Z,47.80
2019-04-14T03:28:38.668Z,47.80
2019-04-14T03:31:34.582Z,47.90
2019-04-14T03:38:52.962Z,48.00
2019-04-14T03:41:11.883Z,48.30
2019-04-14T03:43:43.109Z,48.40
2019-04-14T03:46:09.665Z,48.50
2019-04-14T03:48:54.044Z,48.60
2019-04-14T03:51:08.481Z,48.50
2019-04-14T03:56:35.637Z,48.60
2019-04-14T03:59:04.310Z,48.60
2019-04-14T04:01:33.000Z,48.60
2019-04-14T04:04:01.717Z,48.90
2019-04-14T04:06:31.351Z,49.00
2019-04-14T04:08:59.967Z,49.00
2019-04-14T04:11:30.122Z,49.10
2019-04-14T04:13:58.893Z,49.10
2019-04-14T04:16:46.199Z,49.00
2019-04-14T04:19:25.110Z,49.10
2019-04-14T04:22:31.156Z,49.20
2019-04-14T04:25:13.917Z,49.50
2019-04-14T04:28:05.997Z,49.60
2019-04-14T04:30:41.096Z,49.60
2019-04-14T04:33:41.463Z,49.50
2019-04-14T04:36:22.406Z,49.40
2019-04-14T04:38:57.439Z,49.50
2019-04-14T04:41:27.478Z,49.50
2019-04-14T04:43:56.341Z,49.40
2019-04-14T04:46:24.791Z,49.50
2019-04-14T04:49:04.684Z,49.60
2019-04-14T04:51:24.575Z,49.60
2019-04-14T04:53:53.202Z,49.70
2019-04-14T04:56:21.640Z,49.90
2019-04-14T04:58:50.242Z,50.00
2019-04-14T05:01:18.974Z,50.00
2019-04-14T05:03:47.434Z,49.90
2019-04-14T05:07:12.904Z,50.20
2019-04-14T05:10:00.229Z,50.20
2019-04-14T05:12:43.605Z,49.90
2019-04-14T05:15:40.519Z,50.10
2019-04-14T05:18:22.414Z,50.00
2019-04-14T05:20:51.105Z,50.00
2019-04-14T05:23:21.205Z,50.20
2019-04-14T05:25:49.898Z,50.20
2019-04-14T05:28:19.885Z,50.30
2019-04-14T05:30:48.931Z,50.30
2019-04-14T05:33:18.526Z,50.50
2019-04-14T05:35:48.740Z,50.40
2019-04-14T05:38:19.072Z,50.50
2019-04-14T05:40:51.812Z,50.50
2019-04-14T05:43:30.424Z,50.80
2019-04-14T05:45:50.674Z,50.20
2019-04-14T05:48:20.322Z,50.00
2019-04-14T05:50:49.086Z,49.80
2019-04-14T05:53:17.574Z,49.80
2019-04-14T05:55:46.124Z,50.10
2019-04-14T05:58:14.720Z,50.20
2019-04-14T06:00:46.349Z,49.90
2019-04-14T06:03:14.941Z,49.50
2019-04-14T06:05:44.930Z,49.50
2019-04-14T06:08:13.684Z,49.60
2019-04-14T06:10:43.138Z,49.50
2019-04-14T06:13:12.012Z,49.50
2019-04-14T06:15:40.824Z,49.50
2019-04-14T06:18:10.120Z,49.50
2019-04-14T06:20:38.815Z,49.20
2019-04-14T06:23:07.204Z,49.40
2019-04-14T06:25:36.458Z,49.20
2019-04-14T06:28:06.176Z,49.60
2019-04-14T06:31:03.198Z,48.50
2019-04-14T06:33:57.308Z,48.60
2019-04-14T06:36:37.349Z,48.70
2019-04-14T06:39:16.142Z,48.70
2019-04-14T06:41:46.991Z,48.20
2019-04-14T06:44:15.994Z,48.30
2019-04-14T06:46:44.305Z,48.20
2019-04-14T06:49:12.957Z,48.60
2019-04-14T06:51:41.386Z,48.40
2019-04-14T06:54:10.029Z,48.20
2019-04-14T06:56:38.469Z,48.10
2019-04-14T06:59:07.165Z,47.50
2019-04-14T07:01:38.900Z,47.40
2019-04-14T07:04:06.717Z,47.00
2019-04-14T07:06:35.331Z,46.70
2019-04-14T07:09:05.429Z,46.60
2019-04-14T07:11:34.259Z,46.70
2019-04-14T07:14:02.653Z,46.70
2019-04-14T07:16:31.723Z,45.60
2019-04-14T07:19:01.485Z,45.40
2019-04-14T07:21:29.913Z,45.20
2019-04-14T07:23:58.565Z,45.30
2019-04-14T07:26:27.322Z,45.20
2019-04-14T07:28:57.118Z,44.60
2019-04-14T07:31:50.839Z,42.00
2019-04-14T07:34:58.005Z,40.10
2019-04-14T07:37:44.549Z,37.60
2019-04-14T07:40:45.264Z,35.70
2019-04-14T07:43:35.126Z,34.10
2019-04-14T07:46:26.680Z,33.00
2019-04-14T07:49:20.918Z,30.30
2019-04-14T07:52:09.372Z,29.30
2019-04-14T07:54:42.483Z,29.70
2019-04-14T07:57:43.171Z,28.90
2019-04-14T08:00:16.053Z,27.70
2019-04-14T08:03:04.138Z,27.10
2019-04-14T08:05:37.140Z,27.10
2019-04-14T08:08:05.774Z,25.90
2019-04-14T08:10:34.807Z,26.20
2019-04-14T08:13:04.993Z,24.70
2019-04-14T08:15:33.732Z,25.20
2019-04-14T08:18:02.353Z,25.10
2019-04-14T08:20:31.067Z,24.20
2019-04-14T08:23:00.237Z,24.10
2019-04-14T08:25:29.994Z,22.70
2019-04-14T08:27:59.258Z,22.80
2019-04-14T08:30:28.630Z,23.20
2019-04-14T08:32:57.246Z,22.90
2019-04-14T08:35:26.303Z,22.50
2019-04-14T08:37:55.308Z,22.10
2019-04-14T08:40:24.027Z,21.80
2019-04-14T08:42:59.814Z,21.10
2019-04-14T08:46:02.455Z,21.50
2019-04-14T08:48:49.221Z,20.20
2019-04-14T08:51:39.939Z,20.30
2019-04-14T08:54:34.068Z,19.70
2019-04-14T08:57:22.600Z,19.90
2019-04-14T09:00:13.271Z,19.70
2019-04-14T09:03:01.651Z,20.70
2019-04-14T09:05:48.803Z,21.80
2019-04-14T09:08:21.399Z,21.90
2019-04-14T09:10:53.828Z,22.40
2019-04-14T09:13:22.361Z,21.80
2019-04-14T09:15:50.777Z,21.00
2019-04-14T09:18:19.425Z,20.90
2019-04-14T09:20:52.574Z,20.40
2019-04-14T09:23:19.081Z,20.00
2019-04-14T09:25:48.022Z,19.30
2019-04-14T09:28:16.970Z,19.00
2019-04-14T09:30:45.559Z,18.20
2019-04-14T09:33:14.003Z,18.10
2019-04-14T09:35:42.631Z,17.70
2019-04-14T09:38:11.375Z,17.60
2019-04-14T09:40:40.065Z,17.20
2019-04-14T09:43:08.773Z,17.30
2019-04-14T09:45:39.260Z,16.90
2019-04-14T09:48:07.981Z,17.20
2019-04-14T09:50:36.639Z,16.40
2019-04-14T09:53:05.298Z,16.40
2019-04-14T09:55:33.574Z,16.50
2019-04-14T09:58:02.206Z,16.00
2019-04-14T10:00:33.389Z,16.00
2019-04-14T10:03:02.220Z,16.10
2019-04-14T10:05:30.924Z,15.90
2019-04-14T10:07:59.603Z,15.80
2019-04-14T10:10:27.999Z,15.50
2019-04-14T10:12:56.667Z,14.90
2019-04-14T10:15:25.011Z,15.00
2019-04-14T10:17:53.692Z,15.70
2019-04-14T10:20:22.122Z,15.70
2019-04-14T10:22:50.846Z,15.90
2019-04-14T10:25:19.758Z,16.10
2019-04-14T10:27:49.120Z,15.60
2019-04-14T10:30:17.598Z,15.40
2019-04-14T10:32:46.175Z,15.20
2019-04-14T10:35:14.969Z,15.20
2019-04-14T10:37:43.600Z,14.70
2019-04-14T10:40:12.205Z,15.20
2019-04-14T10:42:41.203Z,15.40
2019-04-14T10:45:10.367Z,15.20
2019-04-14T10:47:40.753Z,15.40
2019-04-14T10:50:09.612Z,15.50
2019-04-14T10:52:38.106Z,15.50
2019-04-14T10:55:07.922Z,15.40
2019-04-14T10:57:36.719Z,15.10
2019-04-14T11:00:07.974Z,14.80
2019-04-14T11:02:36.855Z,15.00
2019-04-14T11:05:06.183Z,14.90
2019-04-14T11:07:34.801Z,14.80
2019-04-14T11:10:05.433Z,15.10
2019-04-14T11:12:36.257Z,15.00
2019-04-14T11:15:05.750Z,14.50
2019-04-14T11:17:34.911Z,14.30
2019-04-14T11:20:05.944Z,13.60
2019-04-14T11:22:34.659Z,14.10
2019-04-14T11:25:05.742Z,14.50
2019-04-14T11:27:34.809Z,14.90
2019-04-14T11:30:06.169Z,14.30
2019-04-14T11:32:44.182Z,14.60
2019-04-14T11:35:17.863Z,15.10
2019-04-14T11:38:09.002Z,14.50
2019-04-14T11:40:43.904Z,14.30
2019-04-14T11:43:13.046Z,14.50
2019-04-14T11:45:41.707Z,14.60
2019-04-14T11:48:12.211Z,15.30
2019-04-14T11:50:41.434Z,14.50
2019-04-14T11:53:10.190Z,14.60
2019-04-14T11:55:38.894Z,14.00
2019-04-14T11:58:07.243Z,14.60
2019-04-14T12:00:54.061Z,14.20
2019-04-14T12:03:45.086Z,13.70
2019-04-14T12:06:35.882Z,14.40
2019-04-14T12:09:27.599Z,15.00
2019-04-14T12:11:56.045Z,14.90
2019-04-14T12:14:24.685Z,14.60
2019-04-14T12:16:53.672Z,14.30
2019-04-14T12:19:22.172Z,14.70
2019-04-14T12:21:50.923Z,14.50
2019-04-14T12:24:19.535Z,14.90
2019-04-14T12:26:48.329Z,15.40
2019-04-14T12:29:16.856Z,15.30
2019-04-14T12:31:46.531Z,15.60
2019-04-14T12:34:18.154Z,15.40
2019-04-14T12:36:45.723Z,15.50
2019-04-14T12:39:20.889Z,15.90
2019-04-14T12:42:02.821Z,15.10
2019-04-14T12:44:44.361Z,15.20
2019-04-14T12:47:50.830Z,15.30
2019-04-14T12:50:25.652Z,15.20
2019-04-14T12:52:54.640Z,15.00
2019-04-14T12:55:23.680Z,14.80
2019-04-14T12:57:55.102Z,15.30
2019-04-14T13:00:45.300Z,15.60
2019-04-14T13:03:14.288Z,15.20
2019-04-14T13:05:43.269Z,15.20
2019-04-14T13:08:11.922Z,15.40
2019-04-14T13:10:40.637Z,15.70
2019-04-14T13:13:09.409Z,16.00
2019-04-14T13:15:38.027Z,16.20
2019-04-14T13:18:06.426Z,16.40
2019-04-14T13:20:35.078Z,16.60
2019-04-14T13:23:03.950Z,16.20
2019-04-14T13:25:32.579Z,16.20
2019-04-14T13:28:02.859Z,15.90
2019-04-14T13:30:34.447Z,16.30
2019-04-14T13:33:03.436Z,16.50
2019-04-14T13:35:32.085Z,16.10
2019-04-14T13:38:03.319Z,16.70
2019-04-14T13:40:32.276Z,16.80
2019-04-14T13:43:02.365Z,16.70
2019-04-14T13:45:31.231Z,16.70
2019-04-14T13:47:59.711Z,16.70
2019-04-14T13:50:30.170Z,16.60
2019-04-14T13:52:58.830Z,16.50
2019-04-14T13:55:27.432Z,17.00
2019-04-14T13:57:55.860Z,16.90
2019-04-14T14:00:25.325Z,16.90
2019-04-14T14:02:54.178Z,16.60
2019-04-14T14:05:22.779Z,16.80
2019-04-14T14:07:51.387Z,16.70
2019-04-14T14:10:20.059Z,17.20
2019-04-14T14:13:10.997Z,16.60
2019-04-14T14:16:11.155Z,16.50
2019-04-14T14:19:08.234Z,16.90
2019-04-14T14:21:59.611Z,16.60
2019-04-14T14:24:53.647Z,17.10
2019-04-14T14:27:22.265Z,17.00
2019-04-14T14:29:50.960Z,17.10
2019-04-14T14:32:25.938Z,16.90
2019-04-14T14:34:54.212Z,16.90
2019-04-14T14:37:22.881Z,17.40
2019-04-14T14:39:51.581Z,17.20
2019-04-14T14:42:20.505Z,17.40
2019-04-14T14:44:58.803Z,17.20
2019-04-14T14:47:29.346Z,16.90
2019-04-14T14:50:26.717Z,16.60
2019-04-14T14:52:57.115Z,16.50
2019-04-14T14:55:25.553Z,16.80
2019-04-14T14:57:54.746Z,16.90
2019-04-14T15:00:41.489Z,17.20
2019-04-14T15:03:09.975Z,17.20
2019-04-14T15:05:38.862Z,17.10
2019-04-14T15:08:07.621Z,17.00
2019-04-14T15:10:36.021Z,17.10
2019-04-14T15:13:04.691Z,17.10
2019-04-14T15:15:33.661Z,17.30
2019-04-14T15:18:02.671Z,17.40
2019-04-14T15:20:31.440Z,17.60
2019-04-14T15:23:00.366Z,17.50
2019-04-14T15:25:29.702Z,17.50
2019-04-14T15:27:58.307Z,17.70
2019-04-14T15:30:26.839Z,17.90
2019-04-14T15:32:55.366Z,17.60
2019-04-14T15:35:24.110Z,17.50
2019-04-14T15:37:52.838Z,17.40
2019-04-14T15:40:21.488Z,17.60
2019-04-14T15:42:50.184Z,17.80
2019-04-14T15:45:18.868Z,17.70
2019-04-14T15:47:47.156Z,17.40
2019-04-14T15:50:16.104Z,17.30
2019-04-14T15:52:44.609Z,17.30
2019-04-14T15:55:16.945Z,17.50
2019-04-14T15:57:52.389Z,17.40
2019-04-14T16:00:49.889Z,17.50
2019-04-14T16:03:27.037Z,17.50
2019-04-14T16:06:13.776Z,17.00
2019-04-14T16:08:55.567Z,17.30
2019-04-14T16:11:56.113Z,17.70
2019-04-14T16:14:43.263Z,17.70
2019-04-14T16:17:49.248Z,17.90
2019-04-14T16:20:21.936Z,17.90
2019-04-14T16:22:50.480Z,17.70
2019-04-14T16:25:19.872Z,17.80
2019-04-14T16:27:57.587Z,18.00
2019-04-14T16:30:56.054Z,17.50
2019-04-14T16:33:50.203Z,17.60
2019-04-14T16:36:19.920Z,18.20
2019-04-14T16:38:48.884Z,18.00
2019-04-14T16:41:20.080Z,18.20
2019-04-14T16:43:47.600Z,18.40
2019-04-14T16:46:16.440Z,18.70
2019-04-14T16:48:45.514Z,19.00
2019-04-14T16:51:20.653Z,19.10
2019-04-14T16:53:49.590Z,19.10
2019-04-14T16:56:39.366Z,19.20
2019-04-14T16:59:11.587Z,19.40
2019-04-14T17:01:44.723Z,19.70
2019-04-14T17:04:13.774Z,19.70
2019-04-14T17:06:42.185Z,19.90
2019-04-14T17:09:11.245Z,19.90
2019-04-14T17:11:39.863Z,20.00
2019-04-14T17:14:24.981Z,20.20
2019-04-14T17:17:16.046Z,20.40
2019-04-14T17:19:58.440Z,20.40
2019-04-14T17:22:46.363Z,21.00
2019-04-14T17:25:23.834Z,21.10
2019-04-14T17:28:12.738Z,21.20
2019-04-14T17:31:06.677Z,21.40
2019-04-14T17:33:42.953Z,21.30
2019-04-14T17:36:19.399Z,21.30
2019-04-14T17:39:16.546Z,21.70
2019-04-14T17:42:10.227Z,22.20
2019-04-14T17:44:46.161Z,21.80
2019-04-14T17:47:32.632Z,21.90
2019-04-14T17:50:40.641Z,22.10
2019-04-14T17:53:29.972Z,22.30
2019-04-14T17:56:18.283Z,22.50
2019-04-14T17:58:53.258Z,22.80
2019-04-14T18:01:32.559Z,23.00
2019-04-14T18:04:11.776Z,23.20
2019-04-14T18:07:06.196Z,23.50
2019-04-14T18:10:00.427Z,23.40
2019-04-14T18:12:58.686Z,23.30
2019-04-14T18:15:34.031Z,23.50
2019-04-14T18:18:38.074Z,23.40
2019-04-14T18:21:08.223Z,23.80
2019-04-14T18:23:36.608Z,23.90
2019-04-14T18:26:06.164Z,24.10
2019-04-14T18:28:43.087Z,24.20
2019-04-14T18:31:17.993Z,24.20
2019-04-14T18:34:08.588Z,24.50
2019-04-14T18:36:59.159Z,24.50
2019-04-14T18:39:59.497Z,24.90
2019-04-14T18:42:32.305Z,25.00
2019-04-14T18:45:19.230Z,25.20
2019-04-14T18:48:09.834Z,25.10
2019-04-14T18:50:55.880Z,25.30
2019-04-14T18:53:30.147Z,25.30
2019-04-14T18:56:06.238Z,25.70
2019-04-14T18:58:54.726Z,25.70
2019-04-14T19:01:28.567Z,25.90
2019-04-14T19:03:56.978Z,25.90
2019-04-14T19:06:25.851Z,26.20
2019-04-14T19:08:54.472Z,26.20
2019-04-14T19:11:48.726Z,26.30
2019-04-14T19:14:22.460Z,26.30
2019-04-14T19:16:57.287Z,26.50
2019-04-14T19:19:26.584Z,26.60
2019-04-14T19:21:55.092Z,26.70
2019-04-14T19:24:23.852Z,26.90
2019-04-14T19:26:53.945Z,27.20
2019-04-14T19:29:22.644Z,27.60
2019-04-14T19:31:52.150Z,27.80
2019-04-14T19:34:20.754Z,27.90
2019-04-14T19:36:49.686Z,28.00
2019-04-14T19:39:18.440Z,28.20
2019-04-14T19:41:47.373Z,28.50
2019-04-14T19:44:15.737Z,28.80
2019-04-14T19:46:44.396Z,29.00
2019-04-14T19:49:12.950Z,29.00
2019-04-14T19:51:41.553Z,29.40
2019-04-14T19:54:10.861Z,29.60
2019-04-14T19:56:39.927Z,29.70
2019-04-14T19:59:08.619Z,29.70
2019-04-14T20:01:39.187Z,29.70
2019-04-14T20:04:08.086Z,30.00
2019-04-14T20:06:36.731Z,30.30
2019-04-14T20:09:06.592Z,30.20
2019-04-14T20:11:35.734Z,30.60
2019-04-14T20:14:04.965Z,30.70
2019-04-14T20:17:09.164Z,31.20
2019-04-14T20:20:03.425Z,31.20
2019-04-14T20:22:48.077Z,31.30
2019-04-14T20:25:33.016Z,31.60
2019-04-14T20:27:58.402Z,31.90
2019-04-14T20:30:39.313Z,32.00
2019-04-14T20:33:07.737Z,32.10
2019-04-14T20:35:36.421Z,32.40
2019-04-14T20:38:04.981Z,32.40
2019-04-14T20:40:34.042Z,32.60
2019-04-14T20:43:02.738Z,32.80
2019-04-14T20:45:31.562Z,33.20
2019-04-14T20:48:00.166Z,33.40
2019-04-14T20:50:30.094Z,33.50
2019-04-14T20:52:58.761Z,33.60
2019-04-14T20:55:27.771Z,33.50
2019-04-14T20:57:56.707Z,33.90
2019-04-14T21:00:26.298Z,34.70
2019-04-14T21:03:28.602Z,34.50
2019-04-14T21:06:04.659Z,34.50
2019-04-14T21:08:48.956Z,34.80
2019-04-14T21:11:34.217Z,34.60
2019-04-14T21:14:31.655Z,35.00
2019-04-14T21:17:09.691Z,35.20
2019-04-14T21:20:02.286Z,35.50
2019-04-14T21:22:45.459Z,35.60
2019-04-14T21:25:30.500Z,35.90
2019-04-14T21:28:07.008Z,36.10
2019-04-14T21:30:44.342Z,36.40
2019-04-14T21:33:38.313Z,36.50
2019-04-14T21:36:17.440Z,36.60
2019-04-14T21:39:06.701Z,36.80
2019-04-14T21:41:35.319Z,36.70
2019-04-14T21:44:04.659Z,36.90
2019-04-14T21:46:33.113Z,36.80
2019-04-14T21:49:02.224Z,37.50
2019-04-14T21:51:54.366Z,37.00
2019-04-14T21:54:23.061Z,37.20
2019-04-14T21:57:10.248Z,37.40
2019-04-14T21:59:54.651Z,37.80
2019-04-14T22:02:45.776Z,37.90
2019-04-14T22:05:29.392Z,37.70
2019-04-14T22:08:10.789Z,37.80
2019-04-14T22:10:42.879Z,38.00
2019-04-14T22:13:11.383Z,38.40
2019-04-14T22:15:40.480Z,38.50
2019-04-14T22:18:09.114Z,38.40
2019-04-14T22:20:38.123Z,38.50
2019-04-14T22:23:10.498Z,38.60
2019-04-14T22:25:38.784Z,38.90
2019-04-14T22:28:07.212Z,39.10
2019-04-14T22:30:35.964Z,39.00
2019-04-14T22:33:05.241Z,39.20
2019-04-14T22:35:33.859Z,39.50
2019-04-14T22:38:02.628Z,39.50
2019-04-14T22:40:30.984Z,39.70
2019-04-14T22:42:59.587Z,39.80
2019-04-14T22:45:28.078Z,39.80
2019-04-14T22:47:56.680Z,39.90
2019-04-14T22:50:25.314Z,40.10
2019-04-14T22:52:53.725Z,40.10
2019-04-14T22:55:23.130Z,40.30
2019-04-14T22:57:51.842Z,40.40
2019-04-14T23:00:45.870Z,40.70
2019-04-14T23:03:32.598Z,40.70
2019-04-14T23:06:15.191Z,40.70
2019-04-14T23:08:47.864Z,41.80
2019-04-14T23:11:34.439Z,41.30
2019-04-14T23:14:31.768Z,41.40
2019-04-14T23:17:25.698Z,41.40
2019-04-14T23:20:14.729Z,41.40
2019-04-14T23:23:02.784Z,41.70
2019-04-14T23:25:31.465Z,42.10
2019-04-14T23:28:00.270Z,42.10
2019-04-14T23:30:28.958Z,42.40
2019-04-14T23:32:57.708Z,42.60
2019-04-14T23:35:26.690Z,42.70
2019-04-14T23:37:55.347Z,42.80
2019-04-14T23:40:24.145Z,42.80
2019-04-14T23:42:52.523Z,42.90
2019-04-14T23:45:21.085Z,42.90
2019-04-14T23:47:49.702Z,43.10
2019-04-14T23:50:18.245Z,43.10
2019-04-14T23:52:47.439Z,43.30
2019-04-14T23:55:16.142Z,43.70
2019-04-14T23:57:44.896Z,43.60
